Time;durP1;ratioP1;P1;durP2;ratioP2;P2;SDS_P1;SDS_P2;PMS_P1;PMS_P2;Temp;Humidity;BMP_temperature;BMP_pressure;BME280_temperature;BME280_humidity;BME280_pressure;Samples;Min_cycle;Max_cycle;Signal;HPM_P1;HPM_P2
2023/10/24 00:01:40;;;;;;;5.87;4.40;;;;;;;12.23;100.00;97192.28;5074877;28;20235;-74
2023/10/24 00:04:06;;;;;;;5.73;3.93;;;;;;;12.17;100.00;97190.56;5075189;28;20211;-74
2023/10/24 00:06:32;;;;;;;6.93;4.53;;;;;;;12.19;100.00;97185.81;5075120;28;20208;-74
2023/10/24 00:08:59;;;;;;;5.60;4.33;;;;;;;12.13;100.00;97170.84;5075123;28;20259;-74
2023/10/24 00:11:25;;;;;;;5.30;4.30;;;;;;;12.11;100.00;97158.84;5075017;28;20215;-74
2023/10/24 00:13:52;;;;;;;6.07;4.77;;;;;;;12.16;100.00;97167.66;5074714;28;20200;-74
2023/10/24 00:16:18;;;;;;;4.73;4.20;;;;;;;12.05;100.00;97181.94;5075880;28;20215;-74
2023/10/24 00:18:45;;;;;;;6.00;4.60;;;;;;;12.08;100.00;97181.41;5074898;28;20236;-74
2023/10/24 00:21:11;;;;;;;4.07;3.67;;;;;;;12.08;100.00;97178.75;5074784;28;20314;-74
2023/10/24 00:23:37;;;;;;;4.80;4.10;;;;;;;12.05;100.00;97175.78;5074571;28;20210;-74
2023/10/24 00:26:04;;;;;;;5.70;4.40;;;;;;;12.03;100.00;97183.25;5074556;28;20204;-74
2023/10/24 00:28:30;;;;;;;4.80;4.23;;;;;;;12.01;100.00;97188.81;5074333;28;20726;-74
2023/10/24 00:30:56;;;;;;;4.40;3.97;;;;;;;12.00;100.00;97194.38;5074757;28;20208;-74
2023/10/24 00:33:23;;;;;;;6.10;4.23;;;;;;;11.90;100.00;97192.41;5074382;28;20204;-74
2023/10/24 00:35:49;;;;;;;4.77;4.30;;;;;;;11.90;100.00;97184.44;5074392;28;20670;-74
2023/10/24 00:38:15;;;;;;;4.50;4.10;;;;;;;11.94;100.00;97193.50;5074483;28;20275;-74
2023/10/24 00:40:42;;;;;;;5.43;4.20;;;;;;;12.04;100.00;97200.81;5074562;28;20303;-74
2023/10/24 00:43:09;;;;;;;7.23;4.27;;;;;;;11.99;100.00;97209.56;5074401;28;20238;-74
2023/10/24 00:45:35;;;;;;;6.00;4.23;;;;;;;11.95;100.00;97208.47;5074425;28;20299;-74
2023/10/24 00:48:06;;;;;;;5.50;4.07;;;;;;;12.03;100.00;97194.69;5074394;28;20262;-74
2023/10/24 00:50:32;;;;;;;5.20;3.97;;;;;;;11.98;100.00;97194.63;5074514;28;20231;-74
2023/10/24 00:53:01;;;;;;;4.60;4.20;;;;;;;11.97;100.00;97198.34;5074336;28;20257;-74
2023/10/24 00:55:29;;;;;;;8.20;4.13;;;;;;;11.98;100.00;97205.28;5074140;28;20208;-74
2023/10/24 00:57:56;;;;;;;6.50;4.10;;;;;;;12.00;100.00;97197.03;5073864;28;20707;-74
2023/10/24 01:00:26;;;;;;;8.30;4.17;;;;;;;12.01;100.00;97203.97;5056267;28;20221;-74
2023/10/24 01:02:53;;;;;;;7.63;4.57;;;;;;;12.04;100.00;97193.66;5074660;28;20230;-74
2023/10/24 01:05:19;;;;;;;7.20;4.87;;;;;;;12.10;100.00;97191.84;5074063;28;20214;-74
2023/10/24 01:07:46;;;;;;;4.33;3.80;;;;;;;12.07;100.00;97187.03;5074020;28;20224;-74
2023/10/24 01:10:13;;;;;;;4.47;4.00;;;;;;;12.01;100.00;97183.47;5073710;28;20663;-74
2023/10/24 01:12:40;;;;;;;5.40;4.00;;;;;;;12.01;100.00;97182.66;5074019;28;20204;-74
2023/10/24 01:15:07;;;;;;;4.77;4.27;;;;;;;11.96;100.00;97167.44;5073962;28;20595;-74
2023/10/24 01:17:33;;;;;;;4.87;4.23;;;;;;;12.00;100.00;97160.56;5074910;28;20536;-74
2023/10/24 01:20:00;;;;;;;4.13;3.73;;;;;;;11.99;100.00;97155.50;5073987;28;20214;-74
2023/10/24 01:22:26;;;;;;;6.43;4.20;;;;;;;12.08;100.00;97146.78;5073739;28;20255;-74
2023/10/24 01:24:53;;;;;;;4.83;3.93;;;;;;;12.13;100.00;97148.72;5073687;28;20200;-74
2023/10/24 01:27:21;;;;;;;5.20;4.03;;;;;;;12.09;100.00;97156.41;5073909;28;20230;-74
2023/10/24 01:29:47;;;;;;;7.07;4.33;;;;;;;12.18;100.00;97154.91;5073406;28;20674;-74
2023/10/24 01:32:14;;;;;;;5.93;4.33;;;;;;;12.16;100.00;97149.00;5073738;28;20200;-74
2023/10/24 01:34:40;;;;;;;5.57;4.13;;;;;;;12.14;100.00;97151.13;5074000;28;20204;-74
2023/10/24 01:37:06;;;;;;;4.33;3.90;;;;;;;12.10;100.00;97142.03;5073656;28;20210;-74
2023/10/24 01:39:33;;;;;;;7.97;4.27;;;;;;;12.07;100.00;97145.19;5073665;28;20215;-74
2023/10/24 01:41:59;;;;;;;6.00;3.80;;;;;;;12.16;100.00;97151.69;5073610;28;20225;-74
2023/10/24 01:44:25;;;;;;;8.70;4.13;;;;;;;12.18;100.00;97146.09;5073606;28;20209;-74
2023/10/24 01:46:52;;;;;;;6.40;4.33;;;;;;;12.20;100.00;97149.34;5073611;28;20205;-74
2023/10/24 01:49:21;;;;;;;6.47;4.00;;;;;;;12.16;100.00;97148.22;5073505;28;20228;-74
2023/10/24 01:51:48;;;;;;;5.33;4.20;;;;;;;12.17;100.00;97142.63;5073474;28;20230;-74
2023/10/24 01:54:15;;;;;;;8.23;4.70;;;;;;;12.22;100.00;97139.22;5073123;28;20212;-74
2023/10/24 01:56:41;;;;;;;4.07;3.77;;;;;;;12.21;100.00;97130.41;5073220;28;20674;-74
2023/10/24 01:59:07;;;;;;;5.47;4.40;;;;;;;12.17;100.00;97145.28;5073278;28;20237;-74
2023/10/24 02:01:34;;;;;;;5.27;3.97;;;;;;;12.17;100.00;97141.84;5072893;28;20216;-74
2023/10/24 02:04:00;;;;;;;5.07;3.90;;;;;;;12.14;100.00;97147.66;5073428;28;20204;-74
2023/10/24 02:06:26;;;;;;;4.10;3.70;;;;;;;12.13;100.00;97154.84;5074320;28;20207;-74
2023/10/24 02:08:53;;;;;;;7.73;4.20;;;;;;;12.09;100.00;97144.94;5077031;28;20714;-74
2023/10/24 02:11:19;;;;;;;5.10;4.20;;;;;;;12.19;100.00;97148.53;5077399;28;20213;-74
2023/10/24 02:13:46;;;;;;;5.67;4.80;;;;;;;12.17;100.00;97149.81;5077335;28;20217;-74
2023/10/24 02:16:12;;;;;;;5.13;4.30;;;;;;;12.12;100.00;97145.22;5077273;28;20211;-74
2023/10/24 02:18:38;;;;;;;5.20;4.70;;;;;;;12.13;100.00;97156.72;5077134;28;20234;-74
2023/10/24 02:21:08;;;;;;;6.20;4.33;;;;;;;12.05;100.00;97157.16;5077219;28;20203;-74
2023/10/24 02:23:37;;;;;;;5.93;4.70;;;;;;;12.07;100.00;97155.06;5077117;28;20236;-74
2023/10/24 02:26:03;;;;;;;9.30;4.57;;;;;;;12.10;100.00;97159.88;5077179;28;20211;-74
2023/10/24 02:28:30;;;;;;;5.93;4.33;;;;;;;12.08;100.00;97160.09;5077019;28;20228;-74
2023/10/24 02:30:56;;;;;;;7.33;4.40;;;;;;;12.04;100.00;97145.69;5078059;28;20213;-74
2023/10/24 02:33:22;;;;;;;5.57;4.67;;;;;;;12.04;100.00;97153.69;5076929;28;20210;-74
2023/10/24 02:35:49;;;;;;;6.90;4.73;;;;;;;11.97;100.00;97141.59;5076828;28;20210;-74
2023/10/24 02:38:16;;;;;;;7.00;4.60;;;;;;;12.05;100.00;97144.66;5076825;28;20235;-74
2023/10/24 02:40:52;;;;;;;5.90;5.00;;;;;;;12.03;100.00;97136.06;5076506;28;20208;-74
2023/10/24 02:43:18;;;;;;;5.73;4.60;;;;;;;12.12;100.00;97145.22;5076704;28;20219;-74
2023/10/24 02:45:44;;;;;;;4.97;4.40;;;;;;;12.09;100.00;97140.44;5076723;28;20204;-74
2023/10/24 02:48:11;;;;;;;5.90;4.50;;;;;;;12.17;100.00;97137.28;5076602;28;20231;-74
2023/10/24 02:50:37;;;;;;;4.73;4.23;;;;;;;12.13;100.00;97138.88;5076704;28;20215;-74
2023/10/24 02:53:06;;;;;;;4.97;4.43;;;;;;;12.14;100.00;97137.81;5076522;28;20199;-74
2023/10/24 02:55:34;;;;;;;8.07;4.33;;;;;;;12.12;100.00;97150.56;5076163;28;20732;-74
2023/10/24 02:58:01;;;;;;;4.70;3.87;;;;;;;12.12;100.00;97155.09;5076116;28;20230;-74
2023/10/24 03:00:29;;;;;;;5.97;4.40;;;;;;;12.03;100.00;97156.59;5076287;28;20316;-74
2023/10/24 03:02:56;;;;;;;4.83;4.03;;;;;;;12.01;100.00;97162.16;5076289;28;20260;-74
2023/10/24 03:05:22;;;;;;;6.53;4.37;;;;;;;11.95;100.00;97168.50;5076287;28;20212;-74
2023/10/24 03:07:48;;;;;;;4.70;4.20;;;;;;;12.08;100.00;97154.78;5076274;28;20230;-74
2023/10/24 03:10:15;;;;;;;5.27;4.33;;;;;;;12.13;100.00;97154.84;5076250;28;20218;-74
2023/10/24 03:12:41;;;;;;;5.20;4.10;;;;;;;12.10;100.00;97155.34;5076441;28;20207;-74
2023/10/24 03:15:08;;;;;;;5.47;4.83;;;;;;;12.12;100.00;97149.78;5076059;28;20214;-74
2023/10/24 03:17:34;;;;;;;6.20;5.20;;;;;;;12.08;100.00;97146.78;5075136;28;20315;-74
2023/10/24 03:20:01;;;;;;;6.53;4.27;;;;;;;12.04;100.00;97143.03;5075687;28;20234;-74
2023/10/24 03:22:27;;;;;;;4.80;4.27;;;;;;;12.07;100.00;97136.41;5075806;28;20227;-74
2023/10/24 03:24:53;;;;;;;5.07;4.07;;;;;;;12.15;100.00;97147.41;5075645;28;20665;-74
2023/10/24 03:27:20;;;;;;;5.30;3.90;;;;;;;12.28;100.00;97144.34;5075404;28;20225;-74
2023/10/24 03:29:46;;;;;;;4.80;3.60;;;;;;;12.28;100.00;97132.88;5076035;28;20211;-74
2023/10/24 03:32:12;;;;;;;6.27;3.90;;;;;;;12.31;100.00;97130.53;5075640;28;20214;-74
2023/10/24 03:34:39;;;;;;;4.90;3.60;;;;;;;12.33;100.00;97123.06;5075573;28;20209;-74
2023/10/24 03:37:05;;;;;;;3.97;3.53;;;;;;;12.32;100.00;97121.47;5075153;28;20222;-74
2023/10/24 03:39:32;;;;;;;4.30;3.50;;;;;;;12.32;100.00;97108.16;5075516;28;20273;-74
2023/10/24 03:41:58;;;;;;;5.60;2.90;;;;;;;12.32;100.00;97102.81;5075446;28;20211;-74
2023/10/24 03:44:25;;;;;;;4.20;3.20;;;;;;;12.43;100.00;97091.19;5075226;28;20672;-74
2023/10/24 03:46:51;;;;;;;4.80;3.50;;;;;;;12.43;100.00;97087.72;5075410;28;20205;-74
2023/10/24 03:49:18;;;;;;;4.53;3.33;;;;;;;12.38;100.00;97083.13;5075420;28;20221;-74
2023/10/24 03:51:46;;;;;;;6.27;3.77;;;;;;;12.30;100.00;97085.47;5075054;28;20213;-74
2023/10/24 03:54:13;;;;;;;7.40;3.73;;;;;;;12.34;100.00;97089.25;5075490;28;20200;-74
2023/10/24 03:56:42;;;;;;;4.93;4.10;;;;;;;12.35;100.00;97080.97;5075397;28;20208;-74
2023/10/24 03:59:08;;;;;;;6.10;4.10;;;;;;;12.28;100.00;97083.06;5074924;28;20228;-74
2023/10/24 04:01:35;;;;;;;5.63;4.53;;;;;;;12.28;100.00;97075.06;5074783;28;20242;-74
2023/10/24 04:04:02;;;;;;;9.43;4.37;;;;;;;12.33;100.00;97087.63;5074651;28;20726;-74
2023/10/24 04:06:28;;;;;;;5.77;4.57;;;;;;;12.26;100.00;97074.50;5075020;28;20215;-74
2023/10/24 04:08:56;;;;;;;7.97;4.13;;;;;;;12.27;100.00;97078.78;5074878;28;20304;-74
2023/10/24 04:11:23;;;;;;;5.57;4.03;;;;;;;12.25;100.00;97082.78;5074724;28;20255;-74
2023/10/24 04:13:49;;;;;;;7.87;4.30;;;;;;;12.29;100.00;97092.66;5074766;28;20240;-74
2023/10/24 04:16:16;;;;;;;4.30;3.90;;;;;;;12.28;100.00;97087.56;5074899;28;20208;-74
2023/10/24 04:18:42;;;;;;;5.33;4.27;;;;;;;12.33;100.00;97088.44;5074663;28;20787;-74
2023/10/24 04:21:09;;;;;;;6.20;4.33;;;;;;;12.48;100.00;97083.22;5075238;28;20208;-74
2023/10/24 04:23:35;;;;;;;4.87;3.80;;;;;;;12.33;100.00;97079.63;5074769;28;20227;-74
2023/10/24 04:26:05;;;;;;;7.43;4.40;;;;;;;12.16;100.00;97068.28;5074178;28;20215;-74
2023/10/24 04:28:32;;;;;;;6.20;4.03;;;;;;;12.24;100.00;97073.97;5074110;28;20579;-74
2023/10/24 04:30:58;;;;;;;4.83;4.10;;;;;;;12.21;100.00;97079.00;5074259;28;20210;-74
2023/10/24 04:33:24;;;;;;;5.97;4.10;;;;;;;12.25;100.00;97080.09;5074136;28;20204;-74
2023/10/24 04:35:51;;;;;;;6.07;4.27;;;;;;;12.19;100.00;97073.91;5074294;28;20214;-74
2023/10/24 04:38:18;;;;;;;5.47;4.07;;;;;;;12.32;100.00;97080.69;5074186;28;20245;-74
2023/10/24 04:40:45;;;;;;;7.77;5.40;;;;;;;12.37;100.00;97086.88;5074123;28;20204;-74
2023/10/24 04:43:11;;;;;;;7.77;4.67;;;;;;;12.38;100.00;97082.34;5074030;28;20567;-74
2023/10/24 04:45:38;;;;;;;5.87;4.17;;;;;;;12.21;100.00;97079.78;5074235;28;20212;-74
2023/10/24 04:48:06;;;;;;;5.70;4.40;;;;;;;12.20;100.00;97083.50;5074070;28;20227;-74
2023/10/24 04:50:36;;;;;;;5.20;4.70;;;;;;;12.20;100.00;97077.41;5074134;28;20215;-74
2023/10/24 04:53:03;;;;;;;6.00;4.73;;;;;;;12.31;100.00;97073.75;5073938;28;20194;-74
2023/10/24 04:55:29;;;;;;;6.80;4.37;;;;;;;12.28;100.00;97087.56;5073517;28;20216;-74
2023/10/24 04:57:55;;;;;;;6.00;5.10;;;;;;;12.35;100.00;97080.97;5073505;28;20740;-74
2023/10/24 05:00:22;;;;;;;5.40;4.13;;;;;;;12.35;100.00;97077.53;5073551;28;20213;-74
2023/10/24 05:02:48;;;;;;;4.90;3.90;;;;;;;12.29;100.00;97070.56;5073745;28;20255;-74
2023/10/24 05:05:15;;;;;;;5.07;4.30;;;;;;;12.22;100.00;97073.41;5074396;28;20209;-74
2023/10/24 05:07:41;;;;;;;6.63;4.10;;;;;;;12.21;100.00;97074.44;5073157;28;20235;-74
2023/10/24 05:10:08;;;;;;;6.60;4.13;;;;;;;12.15;100.00;97069.31;5073701;28;20215;-74
2023/10/24 05:12:34;;;;;;;5.07;4.00;;;;;;;12.22;100.00;97065.44;5073353;28;20200;-74
2023/10/24 05:15:00;;;;;;;6.17;3.73;;;;;;;12.20;100.00;97064.84;5073192;28;20205;-74
2023/10/24 05:17:30;;;;;;;7.67;4.07;;;;;;;12.21;100.00;97057.69;5073182;28;20740;-74
2023/10/24 05:20:02;;;;;;;4.90;4.27;;;;;;;12.27;100.00;97049.47;5073448;28;20204;-74
2023/10/24 05:22:28;;;;;;;7.90;4.57;;;;;;;12.35;100.00;97043.66;5073253;28;20208;-74
2023/10/24 05:24:55;;;;;;;5.17;3.93;;;;;;;12.40;100.00;97033.06;5073170;28;20205;-74
2023/10/24 05:27:21;;;;;;;6.97;4.30;;;;;;;12.35;100.00;97030.34;5072865;28;20242;-74
2023/10/24 05:29:48;;;;;;;8.40;4.23;;;;;;;12.25;100.00;97034.81;5073092;28;20674;-74
2023/10/24 05:32:14;;;;;;;6.63;4.70;;;;;;;12.25;100.00;97034.81;5072870;28;20207;-74
2023/10/24 05:34:40;;;;;;;6.80;4.33;;;;;;;12.33;100.00;97043.13;5073209;28;20218;-74
2023/10/24 05:37:07;;;;;;;4.37;3.97;;;;;;;12.33;100.00;97040.47;5073209;28;20210;-74
2023/10/24 05:39:33;;;;;;;6.23;4.47;;;;;;;12.38;100.00;97040.50;5072988;28;20295;-74
2023/10/24 05:41:59;;;;;;;4.20;3.80;;;;;;;12.28;100.00;97032.44;5071892;28;20204;-74
2023/10/24 05:44:26;;;;;;;5.37;4.10;;;;;;;12.31;100.00;97026.59;5072758;28;20223;-74
2023/10/24 05:46:53;;;;;;;6.30;4.40;;;;;;;12.46;100.00;97026.72;5073115;28;20294;-74
2023/10/24 05:49:20;;;;;;;4.60;4.13;;;;;;;12.31;100.00;97028.44;5072867;28;20299;-74
2023/10/24 05:51:46;;;;;;;7.70;4.10;;;;;;;12.43;100.00;97029.88;5072575;28;20218;-74
2023/10/24 05:54:13;;;;;;;5.97;4.60;;;;;;;12.36;100.00;97025.81;5072981;28;20200;-74
2023/10/24 05:56:39;;;;;;;6.57;4.47;;;;;;;12.35;100.00;97027.66;5072724;28;20299;-74
2023/10/24 05:59:05;;;;;;;6.13;4.20;;;;;;;12.17;100.00;97029.94;5072496;28;20236;-74
2023/10/24 06:01:32;;;;;;;6.93;4.33;;;;;;;12.21;100.00;97020.38;5072782;28;20701;-74
2023/10/24 06:03:58;;;;;;;5.90;4.27;;;;;;;12.14;100.00;97017.91;5072873;28;20322;-74
2023/10/24 06:06:24;;;;;;;5.67;4.50;;;;;;;12.21;100.00;97017.72;5072748;28;20207;-74
2023/10/24 06:08:51;;;;;;;7.73;4.87;;;;;;;12.22;100.00;97019.31;5072678;28;20234;-74
2023/10/24 06:11:17;;;;;;;6.60;4.40;;;;;;;12.24;100.00;97017.19;5072796;28;20207;-75
2023/10/24 06:13:43;;;;;;;5.47;4.37;;;;;;;12.26;100.00;97021.19;5072404;28;20683;-74
2023/10/24 06:16:16;;;;;;;6.57;4.33;;;;;;;12.28;100.00;97024.44;5072549;28;20207;-74
2023/10/24 06:18:43;;;;;;;6.90;4.20;;;;;;;12.19;100.00;97027.81;5072915;28;20277;-74
2023/10/24 06:21:10;;;;;;;8.07;4.47;;;;;;;12.23;100.00;97032.38;5073493;28;20212;-74
2023/10/24 06:23:38;;;;;;;9.10;4.70;;;;;;;12.23;100.00;97045.72;5072564;28;20228;-74
2023/10/24 06:26:04;;;;;;;6.83;4.87;;;;;;;12.18;100.00;97045.66;5072608;28;20208;-74
2023/10/24 06:28:31;;;;;;;9.43;4.87;;;;;;;12.14;100.00;97036.56;5072775;28;20231;-74
2023/10/24 06:30:59;;;;;;;6.27;4.57;;;;;;;12.24;100.00;97043.84;5072799;28;20305;-74
2023/10/24 06:33:29;;;;;;;7.30;4.50;;;;;;;12.23;100.00;97039.56;5072403;28;20208;-74
2023/10/24 06:35:56;;;;;;;6.80;4.57;;;;;;;12.32;100.00;97044.19;5072849;28;20570;-74
2023/10/24 06:38:23;;;;;;;5.87;4.53;;;;;;;12.26;100.00;97036.41;5072274;28;20231;-74
2023/10/24 06:40:50;;;;;;;7.33;4.40;;;;;;;12.26;100.00;97036.41;5072038;28;20211;-73
2023/10/24 06:43:18;;;;;;;5.83;4.60;;;;;;;12.19;100.00;97028.63;5072497;28;20227;-74
2023/10/24 06:45:45;;;;;;;6.93;4.47;;;;;;;12.23;100.00;97026.25;5072737;28;20208;-74
2023/10/24 06:48:12;;;;;;;6.53;5.10;;;;;;;12.33;100.00;97027.13;5072363;28;20232;-74
2023/10/24 06:50:39;;;;;;;8.00;4.90;;;;;;;12.37;100.00;97019.44;5072419;28;20212;-74
2023/10/24 06:53:10;;;;;;;8.07;5.07;;;;;;;12.37;100.00;97028.25;5074137;28;20247;-74
2023/10/24 06:55:37;;;;;;;5.93;4.50;;;;;;;12.46;100.00;97026.72;5075575;28;20211;-74
2023/10/24 06:58:04;;;;;;;7.57;4.70;;;;;;;12.48;100.00;97027.25;5075875;28;20231;-74
2023/10/24 07:00:31;;;;;;;7.77;5.13;;;;;;;12.44;100.00;97028.81;5076100;28;20686;-74
2023/10/24 07:02:58;;;;;;;5.63;4.33;;;;;;;12.42;100.00;97028.28;5076087;28;20563;-74
2023/10/24 07:05:24;;;;;;;9.60;5.10;;;;;;;12.45;100.00;97035.78;5075591;28;20716;-74
2023/10/24 07:07:51;;;;;;;10.17;4.70;;;;;;;12.53;100.00;97051.28;5075634;28;20221;-74
2023/10/24 07:10:17;;;;;;;7.93;4.83;;;;;;;12.46;100.00;97037.38;5075754;28;20210;-74
2023/10/24 07:12:43;;;;;;;6.13;4.83;;;;;;;12.48;100.00;97037.91;5076397;28;20558;-74
2023/10/24 07:15:10;;;;;;;6.37;4.60;;;;;;;12.60;100.00;97033.22;5076653;28;20239;-74
2023/10/24 07:17:36;;;;;;;6.20;4.30;;;;;;;12.57;100.00;97041.72;5075815;28;20224;-74
2023/10/24 07:20:04;;;;;;;5.10;3.97;;;;;;;12.61;100.00;97047.34;5075784;28;20201;-74
2023/10/24 07:22:31;;;;;;;7.33;3.90;;;;;;;12.78;100.00;97048.78;5075658;28;20278;-74
2023/10/24 07:24:57;;;;;;;7.20;4.10;;;;;;;12.68;100.00;97051.41;5075531;28;20315;-74
2023/10/24 07:27:23;;;;;;;9.13;3.90;;;;;;;12.76;100.00;97056.28;5075735;28;20238;-74
2023/10/24 07:29:50;;;;;;;5.13;3.33;;;;;;;12.72;100.00;97057.03;5075497;28;20211;-74
2023/10/24 07:32:16;;;;;;;6.93;3.97;;;;;;;12.61;100.00;97056.13;5075685;28;20210;-74
2023/10/24 07:34:42;;;;;;;7.17;4.07;;;;;;;12.74;100.00;97055.69;5075561;28;20287;-74
2023/10/24 07:37:09;;;;;;;6.83;3.60;;;;;;;12.77;100.00;97065.88;5075397;28;20221;-74
2023/10/24 07:39:37;;;;;;;7.97;3.33;;;;;;;12.83;100.00;97056.00;5076408;28;20211;-74
2023/10/24 07:42:04;;;;;;;5.43;3.80;;;;;;;12.73;100.00;97047.94;5075287;28;20219;-74
2023/10/24 07:44:30;;;;;;;7.27;4.33;;;;;;;12.75;100.00;97053.84;5075391;28;20235;-74
2023/10/24 07:46:57;;;;;;;6.97;4.03;;;;;;;12.74;100.00;97062.88;5074936;28;20215;-74
2023/10/24 07:49:23;;;;;;;5.50;4.10;;;;;;;12.72;100.00;97049.03;5075047;28;20670;-74
2023/10/24 07:51:50;;;;;;;5.63;4.37;;;;;;;12.72;100.00;97043.69;5074942;28;20565;-74
2023/10/24 07:54:16;;;;;;;5.03;4.50;;;;;;;12.77;100.00;97057.88;5075182;28;20204;-74
2023/10/24 07:56:43;;;;;;;9.53;4.80;;;;;;;12.82;100.00;97049.06;5075194;28;20209;-74
2023/10/24 07:59:09;;;;;;;6.87;4.73;;;;;;;12.76;100.00;97047.44;5075254;28;20228;-74
2023/10/24 08:01:36;;;;;;;6.73;4.63;;;;;;;12.88;100.00;97053.41;5074750;28;20209;-74
2023/10/24 08:04:03;;;;;;;8.80;4.80;;;;;;;12.73;100.00;97070.09;5074452;28;20220;-74
2023/10/24 08:06:29;;;;;;;5.03;4.13;;;;;;;12.61;100.00;97050.81;5074687;28;20214;-74
2023/10/24 08:08:56;;;;;;;7.07;4.70;;;;;;;12.62;100.00;97054.28;5074565;28;20710;-74
2023/10/24 08:11:22;;;;;;;6.40;4.47;;;;;;;12.68;100.00;97048.75;5074761;28;20221;-74
2023/10/24 08:13:49;;;;;;;8.73;5.20;;;;;;;12.72;100.00;97054.34;5074497;28;20553;-74
2023/10/24 08:16:15;;;;;;;10.30;4.90;;;;;;;12.72;100.00;97057.84;5074622;28;20201;-74
2023/10/24 08:18:44;;;;;;;8.63;5.33;;;;;;;12.57;100.00;97064.91;5074524;28;20221;-74
2023/10/24 08:21:12;;;;;;;6.33;4.73;;;;;;;12.68;100.00;97059.41;5074137;28;20251;-74
2023/10/24 08:23:39;;;;;;;5.40;4.90;;;;;;;12.72;100.00;97057.84;5074573;28;20323;-74
2023/10/24 08:26:05;;;;;;;8.07;5.33;;;;;;;12.78;100.00;97055.97;5074211;28;20685;-74
2023/10/24 08:28:32;;;;;;;6.23;5.40;;;;;;;12.68;100.00;97043.41;5074374;28;20233;-74
2023/10/24 08:30:58;;;;;;;7.43;6.13;;;;;;;12.61;100.00;97044.69;5074725;28;20217;-74
2023/10/24 08:33:25;;;;;;;6.33;5.70;;;;;;;12.54;100.00;97036.91;5074392;28;20203;-73
2023/10/24 08:35:51;;;;;;;7.40;5.97;;;;;;;12.58;100.00;97045.19;5074338;28;20233;-73
2023/10/24 08:38:18;;;;;;;8.40;5.80;;;;;;;12.55;100.00;97046.50;5074282;28;20231;-73
2023/10/24 08:40:45;;;;;;;10.47;7.20;;;;;;;12.50;100.00;97056.31;5074253;28;20208;-73
2023/10/24 08:43:11;;;;;;;7.37;6.13;;;;;;;12.39;100.00;97060.75;5074149;28;20221;-73
2023/10/24 08:45:38;;;;;;;9.47;6.60;;;;;;;12.28;100.00;97058.25;5074052;28;20210;-73
2023/10/24 08:48:06;;;;;;;9.37;6.30;;;;;;;12.39;100.00;97063.41;5073740;28;20706;-73
2023/10/24 08:50:36;;;;;;;6.77;5.93;;;;;;;12.29;100.00;97084.66;5073999;28;20210;-73
2023/10/24 08:53:02;;;;;;;7.27;6.10;;;;;;;12.19;100.00;97092.56;5073948;28;20214;-73
2023/10/24 08:55:30;;;;;;;7.73;7.00;;;;;;;12.18;100.00;97087.47;5073854;28;20203;-73
2023/10/24 08:57:58;;;;;;;8.60;7.13;;;;;;;12.20;100.00;97093.38;5073933;28;20234;-73
2023/10/24 09:00:27;;;;;;;7.57;6.80;;;;;;;12.21;100.00;97089.66;5073230;28;20589;-73
2023/10/24 09:02:55;;;;;;;9.47;6.83;;;;;;;12.24;100.00;97079.28;5073531;28;20586;-73
2023/10/24 09:05:27;;;;;;;10.03;7.17;;;;;;;12.34;100.00;97084.69;5073459;28;20223;-73
2023/10/24 09:07:56;;;;;;;11.03;6.90;;;;;;;12.27;100.00;97078.78;5055822;28;20229;-73
2023/10/24 09:10:22;;;;;;;9.53;6.83;;;;;;;12.27;100.00;97086.78;5073596;28;20208;-73
2023/10/24 09:12:54;;;;;;;9.63;7.50;;;;;;;12.37;100.00;97086.06;5073172;28;20213;-73
2023/10/24 09:15:20;;;;;;;8.30;7.40;;;;;;;12.28;100.00;97091.06;5073062;28;20193;-73
2023/10/24 09:17:47;;;;;;;8.20;7.00;;;;;;;12.28;100.00;97096.38;5072995;28;20228;-73
2023/10/24 09:20:14;;;;;;;7.23;6.27;;;;;;;12.33;100.00;97091.09;5073199;28;20212;-73
2023/10/24 09:22:43;;;;;;;11.53;7.60;;;;;;;12.29;100.00;97086.53;5073582;28;20211;-73
2023/10/24 09:25:10;;;;;;;10.07;7.77;;;;;;;12.36;100.00;97081.78;5073349;28;20632;-73
2023/10/24 09:27:36;;;;;;;10.40;7.60;;;;;;;12.48;100.00;97074.44;5073361;28;20236;-73
2023/10/24 09:30:13;;;;;;;13.43;7.57;;;;;;;12.31;100.00;97082.56;5073367;28;20215;-73
2023/10/24 09:32:41;;;;;;;11.03;7.87;;;;;;;12.40;100.00;97078.38;5073584;28;20218;-73
2023/10/24 09:35:08;;;;;;;10.57;8.37;;;;;;;12.33;100.00;97074.28;5073084;28;20220;-73
2023/10/24 09:37:39;;;;;;;11.73;7.97;;;;;;;12.42;100.00;97083.44;5073447;28;20253;-73
2023/10/24 09:40:06;;;;;;;10.00;8.47;;;;;;;12.38;100.00;97091.13;5073608;28;20196;-73
2023/10/24 09:42:32;;;;;;;13.63;8.93;;;;;;;12.48;100.00;97091.22;5073336;28;20205;-73
2023/10/24 09:45:05;;;;;;;12.80;9.93;;;;;;;12.27;100.00;97089.44;5073138;28;20721;-73
2023/10/24 09:47:33;;;;;;;17.37;9.97;;;;;;;12.39;100.00;97082.06;5073347;28;20258;-73
2023/10/24 09:50:00;;;;;;;12.13;9.83;;;;;;;12.46;100.00;97088.00;5073142;28;20204;-74
2023/10/24 09:52:28;;;;;;;13.10;10.30;;;;;;;12.44;100.00;97084.78;5072789;28;20221;-73
2023/10/24 09:54:55;;;;;;;15.30;10.73;;;;;;;12.47;100.00;97084.28;5073262;28;20290;-73
2023/10/24 09:57:23;;;;;;;13.70;10.37;;;;;;;12.53;100.00;97077.16;5072960;28;20235;-73
2023/10/24 09:59:52;;;;;;;11.93;10.07;;;;;;;12.53;100.00;97088.59;5072986;28;20203;-73
2023/10/24 10:02:20;;;;;;;13.60;9.57;;;;;;;12.65;100.00;97069.75;5073280;28;20292;-73
2023/10/24 10:04:49;;;;;;;10.93;8.17;;;;;;;12.67;100.00;97067.66;5072974;28;20224;-73
2023/10/24 10:07:16;;;;;;;13.67;9.77;;;;;;;12.72;100.00;97070.34;5073079;28;20228;-73
2023/10/24 10:09:47;;;;;;;14.10;9.97;;;;;;;12.70;100.00;97065.28;5072943;28;20254;-73
2023/10/24 10:12:17;;;;;;;15.63;9.97;;;;;;;12.72;100.00;97057.03;5072545;28;20705;-73
2023/10/24 10:15:01;;;;;;;20.17;10.80;;;;;;;12.69;100.00;97061.00;5073093;28;20204;-73
2023/10/24 10:17:51;;;;;;;14.47;10.17;;;;;;;12.66;100.00;97061.50;5072593;28;20695;-73
2023/10/24 10:20:49;;;;;;;15.93;10.40;;;;;;;12.71;100.00;97058.88;5073305;28;20195;-73
2023/10/24 10:23:35;;;;;;;16.87;10.60;;;;;;;12.60;100.00;97049.19;5067065;28;20206;-73
2023/10/24 10:26:09;;;;;;;15.03;9.33;;;;;;;12.59;100.00;97044.94;5072701;28;20631;-73
2023/10/24 10:29:20;;;;;;;11.57;9.83;;;;;;;12.60;100.00;97041.22;5075613;28;20586;-73
2023/10/24 10:32:00;;;;;;;15.07;9.90;;;;;;;12.60;100.00;97035.88;5063520;28;20213;-73
2023/10/24 10:34:34;;;;;;;17.40;11.50;;;;;;;12.53;100.00;97029.94;5076753;28;20191;-73
2023/10/24 10:37:01;;;;;;;15.43;12.10;;;;;;;12.62;100.00;97033.75;5076438;28;20215;-73
2023/10/24 10:39:28;;;;;;;13.00;10.93;;;;;;;12.60;100.00;97027.88;5076349;28;20204;-73
2023/10/24 10:41:55;;;;;;;18.37;12.33;;;;;;;12.63;100.00;97030.03;5076147;28;20204;-73
2023/10/24 10:44:35;;;;;;;14.23;11.30;;;;;;;12.62;100.00;97030.28;5076387;28;20228;-73
2023/10/24 10:47:03;;;;;;;14.47;10.57;;;;;;;12.62;100.00;97027.63;5076160;28;20225;-73
2023/10/24 10:49:43;;;;;;;16.27;11.63;;;;;;;12.65;100.00;97029.75;5076346;28;20420;-73
2023/10/24 10:52:22;;;;;;;15.37;10.97;;;;;;;12.58;100.00;97027.34;5077110;28;20526;-73
2023/10/24 10:55:06;;;;;;;14.70;11.80;;;;;;;12.63;100.00;97024.72;5076150;28;20185;-73
2023/10/24 10:57:55;;;;;;;16.43;11.70;;;;;;;12.66;100.00;97015.38;5076105;28;20278;-73
2023/10/24 11:00:27;;;;;;;15.13;12.73;;;;;;;12.73;100.00;97014.09;5075662;28;20614;-73
2023/10/24 11:03:12;;;;;;;17.50;12.50;;;;;;;12.71;100.00;97007.41;5076319;28;20191;-73
2023/10/24 11:05:38;;;;;;;15.80;11.90;;;;;;;12.73;100.00;97003.44;5076078;28;20216;-73
2023/10/24 11:08:07;;;;;;;14.30;11.67;;;;;;;12.76;100.00;97000.25;5076049;28;20584;-73
2023/10/24 11:10:52;;;;;;;18.47;13.23;;;;;;;12.77;100.00;97009.03;5076146;28;20212;-73
2023/10/24 11:13:53;;;;;;;18.30;12.67;;;;;;;12.79;100.00;97002.41;5075877;28;20212;-73
2023/10/24 11:16:19;;;;;;;18.47;13.40;;;;;;;12.82;100.00;96995.75;5032808;28;20673;-73
2023/10/24 11:18:46;;;;;;;17.80;13.63;;;;;;;12.87;100.00;97003.75;5075244;28;20769;-73
2023/10/24 11:21:14;;;;;;;17.60;12.87;;;;;;;12.93;100.00;96997.41;5075974;28;20213;-73
2023/10/24 11:23:42;;;;;;;17.97;12.97;;;;;;;12.84;100.00;96999.75;5075741;28;20243;-73
2023/10/24 11:26:09;;;;;;;15.57;12.77;;;;;;;12.84;100.00;97002.41;5075260;28;20236;-73